Boyd Deep Canyon Reserve, California Weather observations

Data are for 10 minute period ending at time listed.
 Day   Time   Solar   Ave.   Ave.  Ave.  Vector  Max.   Baro.   Total    
  of    of     Rad.   Air    Rel.  Wind   Wind   Wind  Press.  Precip.   
Year   Day            Temp.  Hum.  Speed  Dir.   Gust                    
2014   (PST)  Kw/m2    F      %     mph   deg.    mph    mb.     in.     
-------------------------------------------------------------------------
 328   14:50   0.34   74.1     9    3.9     0     7.9   988.5    0.00 
 328   15:00   0.30   73.6     9    4.1     1     8.8   988.6    0.00 
 328   15:10   0.27   72.8     9    8.7   358    17.1   988.7    0.00 
 328   15:20   0.24   72.4     9    5.7     7    12.5   988.8    0.00 
 328   15:30   0.14   72.3     9    4.4    39     9.6   988.9    0.00 
 328   15:40   0.03   71.5    10    3.1    19    10.7   989.0    0.00 
 328   15:50   0.03   70.9    10    4.8   358     9.4   989.2    0.00 
 328   16:00   0.03   70.7    10    2.5    40     7.4   989.2    0.00 
 328   16:10   0.01   70.4    10    5.5     9    12.7   989.3    0.00 
 328   16:20   0.01   70.3    10    1.7    73     5.2   989.4    0.00 
 328   16:30   0.01   69.9    10    2.9    23     8.2   989.5    0.00 
 328   16:40   0.01   69.6    10    1.8   231     5.7   989.6    0.00 
 328   16:50   0.00   69.1    10    2.2   225     4.9   989.7    0.00 
 328   17:00   0.00   68.5    10    3.3   220     6.2   989.8    0.00 
 328   17:10   0.00   67.5    10    3.2   224     5.1   989.9    0.00 
 328   17:20   0.00   65.9    11    4.6   192     5.5   990.0    0.00 
 328   17:30   0.00   65.8    11    6.5   198     9.9   990.0    0.00 
 328   17:40   0.00   66.5    11    7.1   197     9.7   990.0    0.00 
 328   17:50   0.00   66.1    11    6.6   182     8.2   990.3    0.00 
 328   18:00   0.00   66.0    11    7.0   199    10.8   990.4    0.00 
 328   18:10   0.00   65.9    11    8.7   197    12.6   990.4    0.00 
 328   18:20   0.00   65.8    11    8.9   192    13.9   990.5    0.00 
 328   18:30   0.00   65.7    11    9.6   214    13.8   990.7    0.00 
 328   18:40   0.00   65.7    11    9.2   196    15.1   990.8    0.00 
 328   18:50   0.00   66.0    11   10.4   220    16.0   991.0    0.00 
 328   19:00   0.00   65.6    11    9.3   220    13.6   991.1    0.00 
 328   19:10   0.00   65.1    11    8.4   202    12.8   991.1    0.00 
 328   19:20   0.00   64.6    11    9.3   209    14.0   991.2    0.00 
 328   19:30   0.00   64.9    11   11.9   201    15.2   991.0    0.00 
 328   19:40   0.00   64.4    11    9.7   194    13.8   991.1    0.00 
 328   19:50   0.00   64.7    11   10.7   203    15.3   991.2    0.00 
 328   20:00   0.00   64.7    11    9.5   204    14.5   991.3    0.00 
 328   20:10   0.00   64.6    11    9.0   212    12.1   991.4    0.00 
 328   20:20   0.00   64.1    11   10.3   209    14.0   991.6    0.00 
 328   20:30   0.00   64.3    11   11.0   222    16.4   991.7    0.00 
 328   20:40   0.00   63.6    11   10.5   203    14.6   991.9    0.00 
 328   20:50   0.00   63.8    11   10.7   217    15.4   992.1    0.00 
 328   21:00   0.00   63.6    11   11.1   213    17.1   992.2    0.00 
 328   21:10   0.00   63.0    11    8.7   199    12.3   992.3    0.00 
 328   21:20   0.00   63.1    11   11.2   214    15.3   992.4    0.00 
 328   21:30   0.00   62.9    11   10.8   219    16.5   992.5    0.00 
 328   21:40   0.00   62.5    12    9.9   215    15.7   992.6    0.00 
 328   21:50   0.00   62.2    12   10.2   223    14.2   992.7    0.00 
 328   22:00   0.00   62.2    12   10.8   213    16.4   992.7    0.00 
 328   22:10   0.00   62.4    12   11.5   214    16.9   992.8    0.00 
 328   22:20   0.00   62.2    12   10.7   205    15.6   992.9    0.00 
 328   22:30   0.00   62.3    11   12.0   209    15.5   992.9    0.00 
 328   22:40   0.00   62.3    11   10.0   207    14.5   992.9    0.00 
 328   22:50   0.00   62.5    11    9.2   214    15.3   992.9    0.00 
 328   23:00   0.00   62.4    11    8.5   207    14.2   993.0    0.00 
 328   23:10   0.00   62.5    11    9.9   208    15.4   993.0    0.00 
 328   23:20   0.00   62.5    11    8.3   210    14.7   993.0    0.00 
 328   23:30   0.00   62.5    11    8.2   199    13.2   993.0    0.00 
 328   23:40   0.00   62.6    11    7.5   210    12.1   993.2    0.00 
 328   23:50   0.00   62.3    11    7.9   198    11.5   993.3    0.00 
 329    0:00   0.00   62.5    10    8.5   203    13.2   993.3    0.00 
 329    0:10   0.00   62.0    11    6.8   198    10.9   993.4    0.00 
 329    0:20   0.00   61.9    10    7.7   203    11.1   993.4    0.00 
 329    0:30   0.00   61.7    11    7.0   198    10.4   993.5    0.00 
 329    0:40   0.00   61.7    10    7.9   197    11.6   993.5    0.00 
 329    0:50   0.00   61.7    11    6.5   189    10.4   993.6    0.00 
 329    1:00   0.00   61.6    11    9.7   206    15.9   993.6    0.00 
 329    1:10   0.00   61.8    10   10.2   215    14.6   993.7    0.00 
 329    1:20   0.00   61.8    11   10.1   211    15.9   993.8    0.00 
 329    1:30   0.00   61.7    11    9.6   211    16.3   994.0    0.00 
 329    1:40   0.00   61.6    11   11.7   216    16.9   993.9    0.00 
 329    1:50   0.00   61.7    11   11.3   209    17.2   993.9    0.00 
 329    2:00   0.00   61.4    11   11.2   214    16.8   993.9    0.00 
 329    2:10   0.00   61.5    11   10.5   210    16.0   993.9    0.00 
 329    2:20   0.00   61.4    11   11.1   218    17.0   993.9    0.00 
 329    2:30   0.00   61.7    11   12.1   224    16.7   993.8    0.00 
 329    2:40   0.00   61.5    11   12.1   214    15.9   993.8    0.00 
 329    2:50   0.00   61.1    11   10.8   214    17.0   993.8    0.00 
 329    3:00   0.00   60.9    11   10.0   214    16.5   993.7    0.00 
 329    3:10   0.00   61.1    11   12.1   219    18.8   993.6    0.00 
 329    3:20   0.00   60.7    11   11.3   214    17.4   993.6    0.00 
 329    3:30   0.00   60.9    11   10.4   214    18.2   993.6    0.00 
 329    3:40   0.00   61.0    11    9.9   208    16.1   993.5    0.00 
 329    3:50   0.00   60.9    11   10.4   216    16.1   993.6    0.00 
 329    4:00   0.00   60.9    11   10.8   212    16.0   993.6    0.00 
 329    4:10   0.00   61.1    11   12.0   219    16.9   993.7    0.00 
 329    4:20   0.00   60.9    11   12.1   216    17.2   993.9    0.00 
 329    4:30   0.00   60.8    11   11.4   213    16.6   994.0    0.00 
 329    4:40   0.00   60.5    11    9.6   210    14.9   994.0    0.00 
 329    4:50   0.00   60.4    10    9.2   208    14.2   994.0    0.00 
 329    5:00   0.00   60.7    10    9.8   212    16.8   994.0    0.00 
 329    5:10   0.00   60.6    10    9.9   216    15.2   994.0    0.00 
 329    5:20   0.00   60.4    10    9.7   213    14.2   994.1    0.00 
 329    5:30   0.00   60.4    10    9.0   206    14.7   994.2    0.00 
 329    5:40   0.00   60.5    10   10.6   218    15.4   994.3    0.00 
 329    5:50   0.00   60.6    10    8.6   205    13.7   994.4    0.00 
 329    6:00   0.00   60.2    10    8.1   202    11.5   994.4    0.00 
 329    6:10   0.00   60.3    10    7.1   195    10.7   994.4    0.00 
 329    6:20   0.00   60.5    10    7.2   202    10.9   994.4    0.00 
 329    6:30   0.00   60.6    10    7.1   194    11.0   994.4    0.00 
 329    6:40   0.00   60.2    10    6.7   191    10.2   994.4    0.00 
 329    6:50   0.01   60.3    10    7.5   199    12.6   994.4    0.00 
 329    7:00   0.01   60.5    10    8.5   206    12.0   994.5    0.00 
 329    7:10   0.01   60.5    10    7.6   201    11.2   994.6    0.00 
 329    7:20   0.01   60.5    10    7.4   201    11.8   994.7    0.00 
 329    7:30   0.02   60.6    10    6.9   193    11.4   994.8    0.00 
 329    7:40   0.15   61.0    10    6.3   182    10.6   994.9    0.00 
 329    7:50   0.21   61.8    10    6.7   176    10.9   995.0    0.00 
 329    8:00   0.24   62.9    10    6.8   167    10.2   995.2    0.00 
 329    8:10   0.27   63.5    10    6.0   173     9.1   995.2    0.00 
 329    8:20   0.30   64.4    10    4.5   167     6.6   995.3    0.00 
 329    8:30   0.33   65.2    10    3.8   162     5.8   995.4    0.00 
 329    8:40   0.36   66.5    10    0.9   111     2.3   995.5    0.00 
 329    8:50   0.39   68.3     9    0.8   163     1.6   995.5    0.00 
 329    9:00   0.42   69.6     9    0.5    16     2.2   995.7    0.00 
 329    9:10   0.44   69.5     9    1.1   174     2.9   995.7    0.00 
 329    9:20   0.47   68.6     9    3.5    57     7.7   995.6    0.00 
 329    9:30   0.49   67.7    10    4.2    35     7.6   995.7    0.00 
 329    9:40   0.51   67.4    10    5.7    77     8.3   995.6    0.00 
 329    9:50   0.53   67.0    10    5.6    85     8.7   995.4    0.00 
 329   10:00   0.55   67.7    10    4.5    72     7.6   995.2    0.00 
 329   10:10   0.57   68.4    10    5.6    67     7.7   995.1    0.00 
 329   10:20   0.58   68.1    10    6.0    86     9.1   994.8    0.00 
 329   10:30   0.60   67.7    10    5.7    98     9.8   994.6    0.00 
 329   10:40   0.61   67.8    10    5.3    88     9.0   994.6    0.00 
 329   10:50   0.62   67.6    10    5.9    82     9.6   994.4    0.00 
 329   11:00   0.62   68.2    10    5.7    81     9.5   994.3    0.00 
 329   11:10   0.63   67.8    10    6.8    85     9.2   994.1    0.00 
 329   11:20   0.64   68.1    10    6.9    75     9.4   993.9    0.00 
 329   11:30   0.64   68.5    11    6.0    60     9.1   993.8    0.00 
 329   11:40   0.64   69.0    10    6.2    58     9.2   993.6    0.00 
 329   11:50   0.64   68.8    12    5.4    18     8.6   993.4    0.00 
 329   12:00   0.64   69.1    12    6.0    37    10.1   993.2    0.00 
 329   12:10   0.60   69.4    11    4.7    81     6.9   993.0    0.00 
 329   12:20   0.62   69.0    11    4.6    81     7.6   992.8    0.00 
 329   12:30   0.61   69.2    11    5.3    79     8.2   992.6    0.00 
 329   12:40   0.60   69.1    11    5.3    80     8.4   992.5    0.00 
 329   12:50   0.59   69.4    11    5.2    83    10.4   992.2    0.00 
 329   13:00   0.58   69.5    11    4.6    78     8.8   992.0    0.00 
 329   13:10   0.56   70.9    11    2.6   105     5.7   991.8    0.00 
 329   13:20   0.54   69.9    11    4.4    92     7.8   991.7    0.00 
 329   13:30   0.52   70.1    11    4.8    97     7.5   991.6    0.00 
 329   13:40   0.51   70.0    12    4.4    87     7.5   991.5    0.00 
 329   13:50   0.48   70.3    12    5.4    78     8.1   991.4    0.00 
 329   14:00   0.46   70.2    12    4.7    84     7.6   991.4    0.00 
 329   14:10   0.43   70.8    12    3.2   113     5.4   991.4    0.00 
 329   14:20   0.41   70.9    12    3.3    91     7.5   991.2    0.00 
 329   14:30   0.38   70.1    13    5.7    78     7.7   991.2    0.00 
 329   14:40   0.35   69.8    14    4.8    86     7.1   991.0    0.00 

Return to Boyd Deep Canyon Reserve graphs page.


Western Regional Climate Center,wrcc@dri.edu